Time;durP1;ratioP1;P1;durP2;ratioP2;P2;SDS_P1;SDS_P2;PMS_P1;PMS_P2;Temp;Humidity;BMP_temperature;BMP_pressure;BME280_temperature;BME280_humidity;BME280_pressure;Samples;Min_cycle;Max_cycle;Signal;HPM_P1;HPM_P2
2023/08/10 00:00:12;;;;;;;3.03;2.77;;;13.70;99.90;;;;;;5149824;28;20433;-45
2023/08/10 00:02:43;;;;;;;5.90;3.43;;;13.60;99.90;;;;;;5147955;28;20276;-46
2023/08/10 00:05:13;;;;;;;2.60;2.50;;;13.60;99.90;;;;;;5147562;28;20425;-47
2023/08/10 00:07:45;;;;;;;2.57;2.30;;;13.60;99.90;;;;;;5151483;28;20437;-45
2023/08/10 00:10:16;;;;;;;4.40;2.90;;;13.50;99.90;;;;;;5147638;28;20746;-46
2023/08/10 00:12:46;;;;;;;20.40;2.60;;;13.50;99.90;;;;;;5150755;28;20567;-44
2023/08/10 00:15:17;;;;;;;3.87;3.30;;;13.50;99.90;;;;;;5148072;28;20185;-46
2023/08/10 00:17:49;;;;;;;6.17;3.10;;;13.40;99.90;;;;;;5143073;28;20225;-46
2023/08/10 00:20:20;;;;;;;5.93;3.07;;;13.40;99.90;;;;;;5150021;28;20216;-45
2023/08/10 00:22:52;;;;;;;2.70;2.27;;;13.40;99.90;;;;;;5133083;28;20438;-45
2023/08/10 00:25:22;;;;;;;2.17;2.07;;;13.50;99.90;;;;;;5148239;28;20445;-46
2023/08/10 00:27:55;;;;;;;3.23;2.90;;;13.50;99.90;;;;;;5147871;28;20448;-46
2023/08/10 00:30:27;;;;;;;2.87;2.67;;;13.50;99.90;;;;;;5146292;28;20213;-46
2023/08/10 00:32:58;;;;;;;2.50;2.30;;;13.60;99.90;;;;;;5152233;28;20437;-46
2023/08/10 00:35:28;;;;;;;3.00;2.40;;;13.50;99.90;;;;;;5145558;28;20433;-45
2023/08/10 00:37:59;;;;;;;2.57;2.37;;;13.50;99.90;;;;;;5145522;28;20981;-46
2023/08/10 00:40:30;;;;;;;3.00;2.80;;;13.60;99.90;;;;;;5133801;28;20702;-46
2023/08/10 00:43:02;;;;;;;2.97;2.77;;;13.60;99.90;;;;;;5136135;28;20641;-46
2023/08/10 00:45:32;;;;;;;3.43;3.10;;;13.60;99.90;;;;;;5149394;28;20182;-46
2023/08/10 00:48:03;;;;;;;4.27;3.00;;;13.70;99.90;;;;;;5133335;28;20459;-46
2023/08/10 00:50:34;;;;;;;3.07;2.43;;;13.80;99.90;;;;;;5147134;28;20288;-46
2023/08/10 00:53:05;;;;;;;3.70;2.10;;;13.90;99.90;;;;;;5145610;28;20433;-47
2023/08/10 00:55:36;;;;;;;2.50;2.30;;;14.00;99.90;;;;;;5148604;28;20192;-46
2023/08/10 00:58:07;;;;;;;4.77;2.90;;;14.00;99.90;;;;;;5146456;28;20442;-44
2023/08/10 01:00:38;;;;;;;4.63;2.30;;;14.00;99.90;;;;;;5142516;28;20206;-45
2023/08/10 01:03:09;;;;;;;2.03;1.93;;;14.10;99.90;;;;;;5146208;28;20516;-46
2023/08/10 01:06:06;;;;;;;2.70;2.50;;;14.10;99.90;;;;;;5141213;28;20445;-47
2023/08/10 01:08:41;;;;;;;4.40;2.00;;;14.10;99.90;;;;;;5141032;28;21129;-45
2023/08/10 01:11:26;;;;;;;2.40;1.80;;;14.10;99.90;;;;;;5147997;28;20463;-46
2023/08/10 01:14:15;;;;;;;2.63;2.47;;;14.00;99.90;;;;;;5150531;28;20444;-44
2023/08/10 01:16:47;;;;;;;1.67;1.57;;;13.90;99.90;;;;;;5145974;28;20838;-44
2023/08/10 01:19:35;;;;;;;2.23;2.10;;;13.90;99.90;;;;;;5119824;28;20449;-45
2023/08/10 01:22:09;;;;;;;2.60;2.00;;;13.90;99.90;;;;;;5142659;28;21024;-45
2023/08/10 01:24:42;;;;;;;5.33;1.97;;;13.90;99.90;;;;;;5145377;28;20437;-46
2023/08/10 01:27:15;;;;;;;1.70;1.60;;;13.90;99.90;;;;;;5134472;28;20441;-45
2023/08/10 01:29:46;;;;;;;1.93;1.60;;;13.90;99.90;;;;;;5134293;28;20546;-44
2023/08/10 01:32:17;;;;;;;4.10;2.53;;;13.90;99.90;;;;;;5147398;28;20461;-44
2023/08/10 01:34:50;;;;;;;2.50;2.30;;;14.00;99.90;;;;;;5149932;28;20484;-45
2023/08/10 01:37:21;;;;;;;1.97;1.87;;;14.00;99.90;;;;;;5149833;28;20174;-46
2023/08/10 01:39:52;;;;;;;1.37;1.37;;;13.90;99.90;;;;;;5147428;28;20441;-45
2023/08/10 01:42:24;;;;;;;2.10;2.00;;;13.90;99.90;;;;;;5147667;28;21105;-46
2023/08/10 01:44:55;;;;;;;2.50;2.40;;;13.90;99.90;;;;;;5131692;28;20428;-46
2023/08/10 01:47:51;;;;;;;4.40;2.10;;;13.80;99.90;;;;;;5145252;28;20445;-47
2023/08/10 01:50:26;;;;;;;2.20;2.10;;;13.80;99.90;;;;;;5145261;28;20213;-46
2023/08/10 01:53:02;;;;;;;2.63;2.43;;;13.70;99.90;;;;;;5127911;28;20445;-46
2023/08/10 01:55:33;;;;;;;2.40;2.20;;;13.70;99.90;;;;;;5149190;28;20410;-47
2023/08/10 01:58:04;;;;;;;2.50;2.13;;;13.60;99.90;;;;;;5146932;28;20438;-45
2023/08/10 02:00:37;;;;;;;2.60;2.40;;;13.50;99.90;;;;;;5140634;28;20220;-45
2023/08/10 02:03:08;;;;;;;2.17;1.97;;;13.40;99.90;;;;;;5130434;28;20535;-46
2023/08/10 02:05:38;;;;;;;2.60;1.90;;;13.40;99.90;;;;;;5146437;28;20535;-46
2023/08/10 02:08:09;;;;;;;5.37;2.27;;;13.30;99.90;;;;;;5145086;28;20189;-46
2023/08/10 02:10:40;;;;;;;2.47;2.37;;;13.30;99.90;;;;;;5130075;28;20252;-46
2023/08/10 02:13:11;;;;;;;2.43;2.23;;;13.30;99.90;;;;;;5147598;28;20174;-45
2023/08/10 02:15:42;;;;;;;1.87;1.73;;;13.30;99.90;;;;;;5141964;28;20638;-46
2023/08/10 02:18:13;;;;;;;5.20;2.20;;;13.20;99.90;;;;;;5130413;28;20242;-46
2023/08/10 02:20:43;;;;;;;4.67;2.20;;;13.20;99.90;;;;;;5124804;28;20538;-45
2023/08/10 02:23:14;;;;;;;2.93;1.83;;;13.20;99.90;;;;;;5128141;28;20182;-45
2023/08/10 02:25:45;;;;;;;2.03;1.83;;;13.20;99.90;;;;;;5143382;28;20186;-46
2023/08/10 02:28:15;;;;;;;7.80;2.40;;;13.20;99.90;;;;;;5146228;28;20278;-45
2023/08/10 02:30:46;;;;;;;1.90;1.80;;;13.20;99.90;;;;;;5139213;28;20261;-46
2023/08/10 02:33:17;;;;;;;7.93;2.83;;;13.20;99.90;;;;;;5143704;28;20185;-45
2023/08/10 02:35:47;;;;;;;10.57;2.07;;;13.10;99.90;;;;;;5143901;28;20189;-46
2023/08/10 02:38:18;;;;;;;1.80;1.70;;;13.10;99.90;;;;;;5131267;28;20261;-47
2023/08/10 02:40:49;;;;;;;1.40;1.30;;;13.10;99.90;;;;;;5139924;28;20252;-46
2023/08/10 02:43:19;;;;;;;3.80;1.90;;;13.00;99.90;;;;;;5144658;28;20185;-45
2023/08/10 02:45:50;;;;;;;4.53;1.93;;;13.00;99.90;;;;;;5135552;28;20185;-46
2023/08/10 02:48:21;;;;;;;2.37;1.73;;;12.90;99.90;;;;;;5138210;28;20800;-46
2023/08/10 02:50:51;;;;;;;1.47;1.00;;;12.90;99.90;;;;;;5140067;28;20989;-46
2023/08/10 02:53:22;;;;;;;1.40;1.20;;;12.90;99.90;;;;;;5146653;28;20208;-46
2023/08/10 02:55:53;;;;;;;4.20;1.87;;;12.80;99.90;;;;;;5142169;28;20213;-47
2023/08/10 02:58:24;;;;;;;2.77;1.70;;;12.80;99.90;;;;;;5143816;28;20181;-45
2023/08/10 03:00:55;;;;;;;3.17;2.30;;;12.80;99.90;;;;;;5143699;28;20208;-46
2023/08/10 03:03:26;;;;;;;8.20;1.77;;;12.80;99.90;;;;;;5143676;28;20449;-46
2023/08/10 03:05:57;;;;;;;0.97;0.97;;;12.70;99.90;;;;;;5130516;28;20197;-46
2023/08/10 03:08:28;;;;;;;3.20;1.77;;;12.70;99.90;;;;;;5146412;28;20476;-46
2023/08/10 03:10:58;;;;;;;2.20;2.00;;;12.60;99.90;;;;;;5146200;28;20216;-45
2023/08/10 03:13:29;;;;;;;1.20;1.20;;;12.60;99.90;;;;;;5146511;28;20185;-45
2023/08/10 03:16:00;;;;;;;3.57;1.90;;;12.60;99.90;;;;;;5146185;28;20544;-46
2023/08/10 03:18:30;;;;;;;6.30;1.67;;;12.60;99.90;;;;;;5133677;28;20178;-46
2023/08/10 03:21:01;;;;;;;1.50;1.40;;;12.60;99.90;;;;;;5129382;28;20605;-45
2023/08/10 03:23:32;;;;;;;4.80;1.83;;;12.70;99.90;;;;;;5149955;28;20212;-45
2023/08/10 03:26:02;;;;;;;5.80;1.80;;;12.70;99.90;;;;;;5134997;28;20192;-46
2023/08/10 03:28:33;;;;;;;2.60;1.93;;;12.70;99.90;;;;;;5151826;28;20209;-46
2023/08/10 03:31:04;;;;;;;2.20;1.67;;;12.70;99.90;;;;;;5133834;28;20320;-46
2023/08/10 03:33:36;;;;;;;1.93;1.70;;;12.70;99.90;;;;;;5154558;28;20615;-45
2023/08/10 03:36:07;;;;;;;4.83;1.43;;;12.80;99.90;;;;;;5131489;28;20208;-45
2023/08/10 03:38:37;;;;;;;4.47;1.90;;;12.80;99.90;;;;;;5144894;28;20437;-45
2023/08/10 03:41:08;;;;;;;7.00;2.63;;;12.70;99.90;;;;;;5153804;28;20205;-45
2023/08/10 03:43:39;;;;;;;6.50;1.93;;;12.70;99.90;;;;;;5147967;28;20252;-45
2023/08/10 03:46:09;;;;;;;4.73;2.00;;;12.70;99.90;;;;;;5136803;28;20515;-45
2023/08/10 03:48:40;;;;;;;2.43;2.00;;;12.70;99.90;;;;;;5150454;28;20197;-45
2023/08/10 03:51:11;;;;;;;5.60;2.00;;;12.60;99.90;;;;;;5148935;28;20210;-45
2023/08/10 03:53:41;;;;;;;5.50;2.23;;;12.70;99.90;;;;;;5133261;28;20626;-46
2023/08/10 03:56:12;;;;;;;2.43;2.17;;;12.60;99.90;;;;;;5149927;28;20338;-46
2023/08/10 03:58:43;;;;;;;2.70;2.50;;;12.60;99.90;;;;;;5153213;28;20607;-45
2023/08/10 04:01:13;;;;;;;1.80;1.53;;;12.60;99.90;;;;;;5153512;28;20206;-46
2023/08/10 04:03:44;;;;;;;2.77;2.17;;;12.50;99.90;;;;;;5157627;28;20261;-45
2023/08/10 04:06:15;;;;;;;2.10;1.90;;;12.50;99.90;;;;;;5152591;28;20178;-45
2023/08/10 04:08:46;;;;;;;2.50;2.30;;;12.60;99.90;;;;;;5151530;28;20192;-45
2023/08/10 04:11:16;;;;;;;1.77;1.67;;;12.60;99.90;;;;;;5150706;28;20214;-45
2023/08/10 04:13:47;;;;;;;3.70;2.67;;;12.70;99.90;;;;;;5154960;28;20226;-45
2023/08/10 04:16:18;;;;;;;1.70;1.60;;;12.80;99.90;;;;;;5138759;28;20194;-46
2023/08/10 04:18:48;;;;;;;1.60;1.60;;;12.90;99.90;;;;;;5142632;28;20182;-45
2023/08/10 04:21:19;;;;;;;1.93;1.50;;;13.00;99.90;;;;;;5149871;28;20209;-45
2023/08/10 04:23:50;;;;;;;2.13;2.00;;;13.10;99.90;;;;;;5148858;28;20351;-46
2023/08/10 04:26:20;;;;;;;3.20;1.93;;;13.30;99.90;;;;;;5147574;28;20185;-46
2023/08/10 04:28:51;;;;;;;1.70;1.60;;;13.50;99.90;;;;;;5145961;28;20191;-46
2023/08/10 04:31:22;;;;;;;2.87;1.80;;;13.60;99.90;;;;;;5153452;28;20221;-45
2023/08/10 04:33:52;;;;;;;3.90;1.70;;;13.90;99.90;;;;;;5144823;28;20274;-46
2023/08/10 04:36:23;;;;;;;5.80;2.83;;;14.10;99.90;;;;;;5130963;28;20201;-46
2023/08/10 04:38:54;;;;;;;2.87;1.63;;;14.20;99.90;;;;;;5149915;28;20689;-47
2023/08/10 04:41:25;;;;;;;3.90;1.57;;;14.30;99.90;;;;;;5146507;28;20577;-46
2023/08/10 04:43:55;;;;;;;4.77;1.77;;;14.40;99.90;;;;;;5141160;28;20186;-46
2023/08/10 04:46:26;;;;;;;1.43;1.33;;;14.40;99.90;;;;;;5142922;28;20192;-45
2023/08/10 04:48:57;;;;;;;4.37;1.67;;;14.50;99.90;;;;;;5145226;28;20637;-45
2023/08/10 04:51:27;;;;;;;1.60;1.30;;;14.60;99.90;;;;;;5143529;28;20267;-44
2023/08/10 04:53:58;;;;;;;5.30;1.80;;;14.60;99.90;;;;;;5142801;28;20186;-44
2023/08/10 04:56:29;;;;;;;2.87;2.10;;;14.70;99.90;;;;;;5145171;28;20272;-46
2023/08/10 04:59:00;;;;;;;3.23;1.60;;;14.70;99.90;;;;;;5147347;28;20178;-45
2023/08/10 05:01:30;;;;;;;7.37;2.00;;;14.70;99.90;;;;;;5140294;28;20607;-46
2023/08/10 05:04:01;;;;;;;4.93;1.87;;;14.80;99.90;;;;;;5132967;28;20276;-48
2023/08/10 05:06:34;;;;;;;2.03;1.90;;;14.90;99.90;;;;;;5129959;28;20376;-47
2023/08/10 05:09:04;;;;;;;5.03;1.77;;;15.00;99.90;;;;;;5142009;28;20670;-46
2023/08/10 05:11:35;;;;;;;7.23;1.80;;;15.10;99.90;;;;;;5142250;28;20532;-46
2023/08/10 05:14:06;;;;;;;4.47;1.70;;;15.10;99.90;;;;;;5143403;28;20256;-47
2023/08/10 05:16:36;;;;;;;3.40;1.60;;;15.10;99.90;;;;;;5148167;28;20185;-46
2023/08/10 05:19:07;;;;;;;8.43;2.97;;;15.10;99.90;;;;;;5146539;28;20479;-45
2023/08/10 05:21:38;;;;;;;8.40;1.67;;;15.20;99.90;;;;;;5148635;28;20268;-47
2023/08/10 05:24:08;;;;;;;2.60;1.40;;;15.50;99.90;;;;;;5139001;28;20186;-45
2023/08/10 05:26:39;;;;;;;6.23;2.17;;;16.00;99.90;;;;;;5141666;28;20244;-46
2023/08/10 05:29:10;;;;;;;7.40;1.70;;;16.80;99.90;;;;;;5133214;28;20573;-47
2023/08/10 05:31:40;;;;;;;2.70;2.53;;;18.70;99.90;;;;;;5146513;28;20209;-46
2023/08/10 05:34:11;;;;;;;7.77;2.70;;;19.80;99.90;;;;;;5130773;28;20178;-45
2023/08/10 05:36:42;;;;;;;5.40;1.87;;;19.40;99.90;;;;;;5145593;28;20237;-47
2023/08/10 05:39:12;;;;;;;10.90;2.30;;;18.80;99.90;;;;;;5127171;28;20192;-45
2023/08/10 05:41:43;;;;;;;3.10;1.60;;;18.40;99.90;;;;;;5128987;28;20209;-47
2023/08/10 05:44:14;;;;;;;3.40;1.73;;;19.50;99.90;;;;;;5126673;28;20202;-47
2023/08/10 05:46:44;;;;;;;1.83;1.63;;;21.60;99.90;;;;;;5139459;28;20268;-47
2023/08/10 05:49:16;;;;;;;7.00;2.00;;;22.40;99.90;;;;;;5141026;28;20631;-46
2023/08/10 05:51:47;;;;;;;2.53;1.63;;;24.30;93.30;;;;;;5130118;28;20279;-46
2023/08/10 05:54:17;;;;;;;7.30;1.90;;;26.00;74.10;;;;;;5142009;28;20471;-47
2023/08/10 05:56:48;;;;;;;3.57;1.60;;;27.70;62.90;;;;;;5139275;28;20260;-47
2023/08/10 05:59:20;;;;;;;4.53;1.77;;;29.30;55.70;;;;;;5144618;28;20188;-53
2023/08/10 06:01:50;;;;;;;3.70;1.50;;;30.10;48.80;;;;;;5143729;28;20866;-47
2023/08/10 06:04:21;;;;;;;4.00;1.77;;;28.30;49.20;;;;;;5142525;28;20440;-46
2023/08/10 06:06:52;;;;;;;8.83;1.60;;;26.50;51.30;;;;;;5127366;28;20190;-45
2023/08/10 06:09:23;;;;;;;5.97;1.83;;;24.80;55.50;;;;;;5137179;28;20646;-46
2023/08/10 06:11:53;;;;;;;1.17;1.17;;;24.40;56.70;;;;;;5124650;28;20217;-47
2023/08/10 06:14:24;;;;;;;5.17;2.00;;;24.10;56.70;;;;;;5135069;28;20185;-48
2023/08/10 06:16:55;;;;;;;4.10;2.00;;;23.00;58.10;;;;;;5139205;28;20313;-46
2023/08/10 06:19:26;;;;;;;2.50;1.50;;;22.50;61.10;;;;;;5142074;28;20842;-46
2023/08/10 06:21:57;;;;;;;5.63;1.87;;;23.70;60.90;;;;;;5120956;28;20564;-47
2023/08/10 06:24:27;;;;;;;3.50;1.83;;;25.10;57.00;;;;;;5144685;28;20185;-47
2023/08/10 06:26:59;;;;;;;2.93;1.53;;;24.50;55.70;;;;;;5134792;28;20663;-46
2023/08/10 06:29:30;;;;;;;6.10;1.97;;;23.20;57.30;;;;;;5137999;28;20206;-47
2023/08/10 06:32:05;;;;;;;2.47;1.30;;;22.00;59.60;;;;;;5144104;28;20560;-46
2023/08/10 06:34:36;;;;;;;1.67;1.50;;;21.10;62.50;;;;;;5141444;28;20196;-46
2023/08/10 06:37:07;;;;;;;5.33;2.47;;;20.40;65.40;;;;;;5143453;28;20483;-45
2023/08/10 06:39:38;;;;;;;2.00;1.60;;;20.00;66.90;;;;;;5136847;28;20473;-46
2023/08/10 06:42:08;;;;;;;1.63;1.50;;;19.80;68.40;;;;;;5136230;28;20298;-46
2023/08/10 06:44:39;;;;;;;8.77;2.30;;;19.90;68.30;;;;;;5141229;28;20205;-47
2023/08/10 06:47:10;;;;;;;8.63;2.33;;;19.80;68.10;;;;;;5129984;28;20209;-46
2023/08/10 06:49:41;;;;;;;3.90;2.03;;;19.50;69.50;;;;;;5145132;28;20677;-47
2023/08/10 06:52:12;;;;;;;2.83;1.77;;;19.50;70.30;;;;;;5145280;28;20452;-47
2023/08/10 06:54:42;;;;;;;9.80;2.30;;;19.40;69.90;;;;;;5145959;28;20185;-47
2023/08/10 06:57:13;;;;;;;4.93;1.50;;;19.70;70.00;;;;;;5151366;28;20177;-47
2023/08/10 06:59:44;;;;;;;3.40;1.87;;;20.60;70.40;;;;;;5142086;28;20281;-47
2023/08/10 07:02:16;;;;;;;5.47;2.23;;;21.80;65.60;;;;;;5133869;28;20863;-47
2023/08/10 07:04:47;;;;;;;4.00;2.13;;;21.90;62.90;;;;;;5126091;28;20262;-46
2023/08/10 07:07:17;;;;;;;2.40;1.30;;;21.70;63.40;;;;;;5149941;28;20452;-47
2023/08/10 07:09:48;;;;;;;9.40;1.90;;;21.30;64.80;;;;;;5133656;28;20173;-47
2023/08/10 07:12:19;;;;;;;2.47;1.70;;;21.10;66.10;;;;;;5149627;28;20288;-46
2023/08/10 07:14:50;;;;;;;5.70;1.83;;;21.30;66.60;;;;;;5144885;28;20244;-47
2023/08/10 07:17:20;;;;;;;1.70;1.60;;;22.30;67.10;;;;;;5154615;28;20181;-46
2023/08/10 07:19:52;;;;;;;4.10;2.40;;;25.10;60.50;;;;;;5133799;28;20196;-46
2023/08/10 07:22:23;;;;;;;2.40;1.67;;;28.40;52.40;;;;;;5147722;28;20189;-46
2023/08/10 07:24:54;;;;;;;3.00;1.70;;;30.70;46.40;;;;;;5144322;28;20447;-47
2023/08/10 07:27:26;;;;;;;2.53;1.30;;;32.70;41.20;;;;;;5140878;28;20586;-47
2023/08/10 07:29:56;;;;;;;5.07;2.33;;;32.30;38.50;;;;;;5149518;28;20436;-47
2023/08/10 07:32:27;;;;;;;1.80;1.63;;;29.80;40.30;;;;;;5152080;28;20500;-47
2023/08/10 07:34:58;;;;;;;3.03;1.90;;;28.10;43.20;;;;;;5135574;28;20552;-47
2023/08/10 07:37:30;;;;;;;8.40;2.20;;;26.40;44.50;;;;;;5143199;28;20448;-47
2023/08/10 07:40:01;;;;;;;5.93;1.87;;;26.10;46.20;;;;;;5109756;28;20201;-48
2023/08/10 07:42:32;;;;;;;1.50;1.33;;;28.10;43.70;;;;;;5132179;28;20424;-47
2023/08/10 07:45:04;;;;;;;3.40;1.30;;;29.90;40.70;;;;;;5129949;28;21259;-47
2023/08/10 07:47:36;;;;;;;7.03;1.37;;;30.90;39.50;;;;;;5148438;28;20514;-47
2023/08/10 07:50:08;;;;;;;6.70;1.67;;;31.90;36.80;;;;;;5148375;28;20452;-47
2023/08/10 07:52:38;;;;;;;2.00;1.30;;;31.80;35.50;;;;;;5132499;28;20440;-46
2023/08/10 07:55:11;;;;;;;3.60;1.27;;;32.20;36.10;;;;;;5144389;28;20803;-47
2023/08/10 07:57:42;;;;;;;2.00;1.20;;;32.40;34.50;;;;;;5134347;28;20178;-47
2023/08/10 08:00:13;;;;;;;2.10;1.90;;;30.60;36.00;;;;;;5130606;28;20461;-47
2023/08/10 08:02:44;;;;;;;3.67;1.53;;;28.50;38.70;;;;;;5147805;28;20232;-47
2023/08/10 08:05:16;;;;;;;4.30;1.77;;;26.70;41.60;;;;;;5148498;28;20440;-46
2023/08/10 08:07:46;;;;;;;1.30;1.00;;;25.30;43.70;;;;;;5132111;28;20194;-46
2023/08/10 08:10:17;;;;;;;3.47;1.10;;;24.20;45.30;;;;;;5143549;28;20469;-46
2023/08/10 08:12:48;;;;;;;1.13;1.13;;;23.50;46.70;;;;;;5128741;28;20186;-47
2023/08/10 08:15:19;;;;;;;2.50;1.40;;;23.30;47.10;;;;;;5144415;28;20237;-49
2023/08/10 08:18:27;;;;;;;3.40;2.03;;;23.50;47.30;;;;;;5138376;28;20193;-46
2023/08/10 08:20:58;;;;;;;5.20;1.93;;;26.20;45.00;;;;;;5137921;28;20460;-46
2023/08/10 08:23:29;;;;;;;2.30;1.10;;;28.60;38.70;;;;;;5129400;28;20433;-46
2023/08/10 08:25:59;;;;;;;2.67;1.07;;;29.30;36.70;;;;;;5130713;28;20248;-47
2023/08/10 08:28:30;;;;;;;3.83;1.57;;;30.50;35.30;;;;;;5125512;28;20811;-46
2023/08/10 08:31:01;;;;;;;1.10;1.10;;;31.20;34.60;;;;;;5147493;28;20218;-47
2023/08/10 08:33:33;;;;;;;4.63;1.90;;;31.10;34.10;;;;;;5139938;28;21481;-46
2023/08/10 08:36:04;;;;;;;5.30;1.33;;;31.50;34.90;;;;;;5128966;28;20429;-48
2023/08/10 08:38:36;;;;;;;2.03;1.93;;;32.40;33.60;;;;;;5120909;28;20468;-47
2023/08/10 08:41:09;;;;;;;2.77;1.73;;;32.20;34.00;;;;;;5121938;28;20482;-47
2023/08/10 08:43:41;;;;;;;1.60;1.23;;;32.20;33.90;;;;;;5126011;28;20832;-47
2023/08/10 08:46:12;;;;;;;1.17;0.93;;;31.90;33.40;;;;;;5136543;28;20488;-48
2023/08/10 08:48:43;;;;;;;2.43;1.53;;;31.30;33.80;;;;;;5140420;28;20436;-48
2023/08/10 08:51:14;;;;;;;4.80;1.57;;;30.50;34.80;;;;;;5139051;28;20484;-48
2023/08/10 08:53:45;;;;;;;1.20;1.10;;;29.00;37.10;;;;;;5124651;28;20445;-48
2023/08/10 08:56:16;;;;;;;3.40;2.00;;;27.50;39.10;;;;;;5136691;28;21531;-47
2023/08/10 08:58:47;;;;;;;4.03;1.90;;;26.30;40.80;;;;;;5138709;28;20849;-46
2023/08/10 09:01:19;;;;;;;1.80;1.17;;;25.40;43.20;;;;;;5125480;28;20300;-47
2023/08/10 09:03:50;;;;;;;6.17;2.17;;;24.90;44.40;;;;;;5136623;28;20878;-48
2023/08/10 09:06:21;;;;;;;15.43;2.33;;;23.90;44.80;;;;;;5118424;28;20517;-46
2023/08/10 09:08:51;;;;;;;3.80;1.53;;;23.70;44.50;;;;;;5128652;28;20185;-48
2023/08/10 09:11:22;;;;;;;1.37;1.20;;;23.20;44.30;;;;;;5142042;28;20245;-47
2023/08/10 09:14:07;;;;;;;5.90;1.47;;;23.00;45.80;;;;;;5117399;28;20671;-48
2023/08/10 09:16:38;;;;;;;18.80;6.40;;;22.70;45.90;;;;;;5132427;28;20208;-47
2023/08/10 09:19:12;;;;;;;3.90;1.93;;;22.00;46.80;;;;;;5140632;28;20961;-46
2023/08/10 09:21:45;;;;;;;9.53;1.67;;;22.10;47.10;;;;;;5139202;28;20458;-46
2023/08/10 09:24:16;;;;;;;2.83;1.23;;;22.40;48.10;;;;;;5123555;28;20528;-46
2023/08/10 09:26:47;;;;;;;2.60;1.70;;;22.40;47.20;;;;;;5136331;28;20587;-45
2023/08/10 09:29:28;;;;;;;1.57;1.47;;;22.40;48.00;;;;;;5134631;28;20181;-47
2023/08/10 09:31:59;;;;;;;1.60;1.50;;;22.00;48.30;;;;;;5139355;28;20248;-46
2023/08/10 09:34:30;;;;;;;4.83;2.37;;;21.80;48.80;;;;;;5141112;28;20469;-48
2023/08/10 09:37:01;;;;;;;5.93;2.63;;;21.50;48.70;;;;;;5126428;28;20241;-46
2023/08/10 09:39:32;;;;;;;4.53;1.90;;;21.20;50.10;;;;;;5136326;28;20186;-46
2023/08/10 09:42:03;;;;;;;2.63;1.90;;;21.30;50.70;;;;;;5145410;28;20208;-46
2023/08/10 09:44:48;;;;;;;1.80;1.30;;;21.40;49.60;;;;;;5141528;28;20523;-46
2023/08/10 09:47:20;;;;;;;5.80;1.57;;;21.90;50.00;;;;;;5136393;28;20516;-45
2023/08/10 09:50:01;;;;;;;5.20;2.10;;;22.30;48.70;;;;;;5145311;28;20475;-46
2023/08/10 09:52:36;;;;;;;2.93;1.80;;;22.50;49.20;;;;;;5143933;28;20422;-46
2023/08/10 09:55:09;;;;;;;9.53;2.13;;;22.40;48.20;;;;;;5141266;28;20444;-47
2023/08/10 09:57:44;;;;;;;3.60;1.27;;;22.40;48.30;;;;;;5140424;28;20429;-47
2023/08/10 10:00:22;;;;;;;5.70;1.37;;;22.20;48.40;;;;;;5122352;28;20468;-47
2023/08/10 10:02:53;;;;;;;2.93;1.20;;;22.00;48.10;;;;;;5139895;28;20459;-47
2023/08/10 10:05:24;;;;;;;4.23;1.40;;;22.00;48.60;;;;;;5143431;28;20480;-47
2023/08/10 10:07:55;;;;;;;3.37;1.50;;;21.80;48.80;;;;;;5137314;28;20957;-47
2023/08/10 10:10:27;;;;;;;9.27;1.40;;;21.90;49.40;;;;;;5123879;28;20267;-46
2023/08/10 10:12:58;;;;;;;1.40;1.30;;;22.00;49.50;;;;;;5142564;28;21155;-46
2023/08/10 10:15:30;;;;;;;1.27;0.73;;;22.40;48.90;;;;;;5135544;28;20448;-48
2023/08/10 10:18:01;;;;;;;1.43;1.27;;;22.60;48.90;;;;;;5145295;28;20471;-46
2023/08/10 10:20:35;;;;;;;1.30;1.20;;;22.40;48.20;;;;;;5139623;28;21023;-47
2023/08/10 10:23:17;;;;;;;3.63;1.53;;;22.40;48.50;;;;;;5138357;28;20520;-46
2023/08/10 10:26:03;;;;;;;1.80;1.23;;;22.10;48.60;;;;;;5137603;28;20464;-48
2023/08/10 10:28:34;;;;;;;2.23;1.37;;;22.40;49.50;;;;;;5142032;28;20436;-48
2023/08/10 10:31:04;;;;;;;2.00;1.10;;;22.60;49.10;;;;;;5135910;28;20568;-46
2023/08/10 10:33:38;;;;;;;6.73;1.67;;;22.40;48.70;;;;;;5139667;28;20524;-47
2023/08/10 10:36:11;;;;;;;3.73;2.57;;;22.00;49.70;;;;;;5120807;28;20190;-46
2023/08/10 10:38:49;;;;;;;3.27;2.20;;;21.80;50.20;;;;;;5144750;28;20429;-48
2023/08/10 10:41:37;;;;;;;3.23;1.73;;;21.40;50.80;;;;;;5141378;28;20484;-47
2023/08/10 10:44:08;;;;;;;1.90;1.30;;;21.80;51.60;;;;;;5137828;28;21214;-46
2023/08/10 10:46:40;;;;;;;3.27;2.87;;;22.20;50.90;;;;;;5138557;28;20456;-47
2023/08/10 10:49:19;;;;;;;11.50;2.13;;;22.50;49.50;;;;;;5137950;28;20441;-47
2023/08/10 10:51:51;;;;;;;3.27;1.40;;;22.00;49.50;;;;;;5143729;28;20472;-46
2023/08/10 10:54:22;;;;;;;2.00;1.73;;;21.60;50.60;;;;;;5142852;28;20776;-47
2023/08/10 10:56:54;;;;;;;3.93;1.60;;;21.40;51.40;;;;;;5126750;28;20445;-47
2023/08/10 10:59:25;;;;;;;6.53;1.47;;;21.60;51.80;;;;;;5130107;28;20189;-46
2023/08/10 11:01:57;;;;;;;2.50;1.87;;;21.80;51.30;;;;;;5132864;28;21098;-46
2023/08/10 11:04:28;;;;;;;2.10;1.20;;;22.00;51.00;;;;;;5141173;28;20535;-46
2023/08/10 11:07:00;;;;;;;2.13;2.00;;;21.90;50.60;;;;;;5142968;28;20859;-45
2023/08/10 11:09:30;;;;;;;2.63;1.67;;;21.40;51.20;;;;;;5134915;28;20202;-45
2023/08/10 11:12:02;;;;;;;3.60;1.40;;;21.20;51.00;;;;;;5139977;28;20479;-47
2023/08/10 11:14:33;;;;;;;1.30;1.20;;;21.30;51.30;;;;;;5136075;28;20288;-46
2023/08/10 11:17:04;;;;;;;8.43;1.27;;;21.30;51.60;;;;;;5137176;28;20437;-45
2023/08/10 11:19:35;;;;;;;3.30;1.70;;;21.50;51.50;;;;;;5140700;28;20190;-47
2023/08/10 11:22:06;;;;;;;8.70;1.73;;;21.60;51.00;;;;;;5136431;28;20210;-45
2023/08/10 11:24:36;;;;;;;3.53;1.20;;;21.60;51.10;;;;;;5135543;28;20288;-47
2023/08/10 11:27:07;;;;;;;2.40;2.20;;;21.50;51.30;;;;;;5140301;28;20248;-47
2023/08/10 11:29:38;;;;;;;5.67;2.00;;;21.60;51.60;;;;;;5139301;28;20181;-47
2023/08/10 11:32:09;;;;;;;1.80;1.27;;;21.50;51.50;;;;;;5138553;28;20487;-46
2023/08/10 11:34:40;;;;;;;3.60;1.40;;;21.30;51.70;;;;;;5139195;28;20185;-49
2023/08/10 11:37:11;;;;;;;8.10;2.70;;;21.20;51.90;;;;;;5136120;28;20257;-45
2023/08/10 11:39:41;;;;;;;2.10;1.00;;;21.10;52.40;;;;;;5143491;28;20217;-47
2023/08/10 11:42:12;;;;;;;2.50;1.63;;;21.20;52.50;;;;;;5142142;28;20212;-47
2023/08/10 11:44:48;;;;;;;11.03;2.90;;;21.50;52.10;;;;;;5143964;28;20189;-46
2023/08/10 11:47:19;;;;;;;2.60;1.50;;;21.60;51.50;;;;;;5126445;28;20181;-47
2023/08/10 11:49:50;;;;;;;5.13;1.83;;;21.50;50.80;;;;;;5143065;28;20889;-45
2023/08/10 11:52:23;;;;;;;2.63;1.90;;;21.40;51.90;;;;;;5142046;28;20726;-47
2023/08/10 11:54:55;;;;;;;3.20;1.90;;;21.70;52.10;;;;;;5139692;28;20435;-45
2023/08/10 11:57:36;;;;;;;4.27;1.83;;;22.00;51.20;;;;;;5147803;28;20443;-48
2023/08/10 12:00:23;;;;;;;6.10;2.40;;;21.90;51.30;;;;;;5146559;28;20439;-47
2023/08/10 12:02:59;;;;;;;4.03;2.50;;;21.80;51.30;;;;;;5141461;28;20441;-48
2023/08/10 12:05:35;;;;;;;4.73;1.83;;;21.70;51.60;;;;;;5144218;28;20432;-46
2023/08/10 12:08:10;;;;;;;4.13;1.83;;;21.50;51.20;;;;;;5143805;28;20439;-45
2023/08/10 12:10:44;;;;;;;6.00;1.23;;;21.30;51.90;;;;;;5124549;28;20467;-47
2023/08/10 12:13:17;;;;;;;3.00;1.77;;;21.30;51.70;;;;;;5141709;28;20463;-47
2023/08/10 12:15:49;;;;;;;1.30;1.20;;;21.10;52.90;;;;;;5137933;28;20942;-46
2023/08/10 12:18:21;;;;;;;2.70;1.30;;;21.00;52.10;;;;;;5128250;28;20436;-47
2023/08/10 12:20:54;;;;;;;1.70;0.90;;;21.10;52.60;;;;;;5144248;28;20469;-46
2023/08/10 12:23:24;;;;;;;1.33;1.20;;;21.40;52.60;;;;;;5141548;28;20948;-47
2023/08/10 12:25:55;;;;;;;1.20;1.20;;;21.70;52.10;;;;;;5144818;28;20429;-46
2023/08/10 12:28:26;;;;;;;3.73;1.67;;;22.00;51.60;;;;;;5146094;28;20269;-47
2023/08/10 12:30:57;;;;;;;2.53;1.23;;;22.10;51.50;;;;;;5142651;28;20241;-46
2023/08/10 12:33:27;;;;;;;2.30;1.40;;;22.10;50.80;;;;;;5126552;28;20263;-47
2023/08/10 12:35:58;;;;;;;2.37;1.23;;;22.00;50.80;;;;;;5139022;28;20186;-47
2023/08/10 12:38:29;;;;;;;6.60;1.33;;;21.80;50.70;;;;;;5140964;28;20197;-46
2023/08/10 12:41:00;;;;;;;1.90;0.90;;;21.70;51.30;;;;;;5142913;28;20210;-47
2023/08/10 12:43:30;;;;;;;3.90;1.30;;;21.70;51.50;;;;;;5136247;28;20607;-47
2023/08/10 12:46:01;;;;;;;1.30;1.20;;;21.90;51.30;;;;;;5134105;28;20511;-46
2023/08/10 12:48:32;;;;;;;2.70;1.43;;;21.80;51.30;;;;;;5140805;28;20186;-48
2023/08/10 12:51:05;;;;;;;6.87;1.87;;;21.50;50.80;;;;;;5139408;28;20271;-46
2023/08/10 12:53:36;;;;;;;1.90;1.77;;;21.20;52.20;;;;;;5135451;28;20178;-47
2023/08/10 12:56:07;;;;;;;4.60;1.50;;;21.30;52.20;;;;;;5136952;28;20443;-45
2023/08/10 12:58:38;;;;;;;3.50;1.03;;;21.50;50.80;;;;;;5137686;28;25337;-46
2023/08/10 13:01:08;;;;;;;2.20;1.63;;;21.70;50.60;;;;;;5139116;28;20457;-48
2023/08/10 13:03:39;;;;;;;3.93;1.53;;;21.90;50.40;;;;;;5143310;28;20679;-47
2023/08/10 13:06:10;;;;;;;1.43;1.33;;;21.90;51.00;;;;;;5140225;28;20190;-46
2023/08/10 13:08:41;;;;;;;3.40;1.50;;;21.90;50.30;;;;;;5136278;28;20592;-46